Ocean Garlic — V7PE3 — position and weather

sailwx.info

Track history (hours):
 
Tides and Currents Weather Stations Pressure Air Temp Water Temp Dewpoint Dewpoint Depression Visibility Wind Speed Wind Dir Waves Ship Positions

Ocean Garlic

Last reported at 2017-Oct-10 02:18 UTC. Time now 2017-Oct-19 11:23 UTC.
Position N 71°05' E 030°21'.
Warning: this ship's position is 9 days out of date.

Length 229 m; draft 7.2 m.

Type: Cargo ship. MMSI: 538006845.

Date/timePositionNaut miles runAvg speedWind from/ knotsBaromVisibWave heightAir tempDewpointWater temp
2017-Oct-10 02:18N 71°05' E 030°21'413.1
2017-Oct-10 02:00N 71°07' E 030°11'713.1
2017-Oct-10 01:30N 71°11' E 029°55'612.7
2017-Oct-10 01:00N 71°15' E 029°39'612.6
2017-Oct-10 00:30N 71°19' E 029°24'  
2017-Oct-05 22:53N 58°48' E 004°13'306 8.4
2017-Oct-04 10:37N 53°42' E 004°53'110.3
2017-Oct-04 10:30N 53°41' E 004°52'510.6
2017-Oct-04 10:00N 53°36' E 004°49'510.6
2017-Oct-04 09:30N 53°31' E 004°47'510.7
2017-Oct-04 09:00N 53°26' E 004°44'610.7
2017-Oct-04 08:28N 53°21' E 004°40'510.9
2017-Oct-04 08:00N 53°16' E 004°37'611.0
2017-Oct-04 07:30N 53°12' E 004°32'611.0
2017-Oct-04 07:00N 53°07' E 004°27'611.0
2017-Oct-04 06:30N 53°02' E 004°23'611.3
2017-Oct-04 06:00N 52°57' E 004°18'611.5
2017-Oct-04 05:30N 52°52' E 004°15'611.8
2017-Oct-04 05:00N 52°47' E 004°09'612.1
2017-Oct-04 04:29N 52°42' E 004°02'612.3
2017-Oct-04 04:00N 52°37' E 003°56'912.8
2017-Oct-04 03:17N 52°32' E 003°45'513.0
2017-Oct-04 02:52N 52°28' E 003°38'712.9
2017-Oct-04 02:21N 52°22' E 003°32'413.1
2017-Oct-04 02:00N 52°18' E 003°31'713.2
2017-Oct-04 01:29N 52°11' E 003°28'1813.6
2017-Oct-04 00:08N 51°53' E 003°22'213.4
2017-Oct-04 00:00N 51°52' E 003°20'611.3
2017-Oct-03 23:29N 51°46' E 003°18'510.8
2017-Oct-03 23:00N 51°41' E 003°19'5 9.2
2017-Oct-03 22:30N 51°37' E 003°22'510.0
2017-Oct-03 22:00N 51°32' E 003°26'5 9.3
2017-Oct-03 21:30N 51°29' E 003°30'4 8.5
2017-Oct-03 21:00N 51°26' E 003°36'3 6.8
2017-Oct-03 20:30N 51°27' E 003°41'1 2.3
2017-Oct-03 20:00N 51°27' E 003°42'0 0.1
2017-Oct-03 19:30N 51°27' E 003°42'0 0.0
2017-Oct-03 18:54N 51°27' E 003°42'0 0.0
2017-Oct-03 18:30N 51°27' E 003°42'0 0.0
2017-Oct-03 18:00N 51°27' E 003°42'0 0.0
2017-Oct-03 17:30N 51°27' E 003°42'0 0.0
2017-Oct-03 17:00N 51°27' E 003°42'0 0.0
2017-Oct-03 16:30N 51°27' E 003°42'0 0.0
2017-Oct-03 16:00N 51°27' E 003°42'0 0.0
2017-Oct-03 15:30N 51°27' E 003°42'0 0.0
2017-Oct-03 15:00N 51°27' E 003°42'0 0.0
2017-Oct-03 13:54N 51°27' E 003°42'0 0.0
2017-Oct-03 13:30N 51°27' E 003°42'0 0.0
2017-Oct-03 13:00N 51°27' E 003°42'0 0.0
2017-Oct-03 12:30N 51°27' E 003°42'0 0.0
2017-Oct-03 12:00N 51°27' E 003°42'0 0.0
2017-Oct-03 11:30N 51°27' E 003°42'0 0.0
2017-Oct-03 11:00N 51°27' E 003°42'0 0.0
2017-Oct-03 10:30N 51°27' E 003°42'0 0.0
2017-Oct-03 10:00N 51°27' E 003°42'0 0.0
2017-Oct-03 09:30N 51°27' E 003°42'0 0.0
2017-Oct-03 09:00N 51°27' E 003°42'0 0.0
2017-Oct-03 08:30N 51°27' E 003°42'0 0.0
2017-Oct-03 08:00N 51°27' E 003°42'0 0.0
2017-Oct-03 07:30N 51°27' E 003°42'0 0.0
2017-Oct-03 07:00N 51°27' E 003°42'0 0.0
2017-Oct-03 06:30N 51°27' E 003°42'0 0.0
2017-Oct-03 06:00N 51°27' E 003°42'0 0.0
2017-Oct-03 05:30N 51°27' E 003°42'0 0.0
2017-Oct-03 05:00N 51°27' E 003°42'0 0.0
2017-Oct-03 04:30N 51°27' E 003°42'0 0.0
2017-Oct-03 04:00N 51°27' E 003°42'0 0.0
2017-Oct-03 03:30N 51°27' E 003°42'0 0.0
2017-Oct-03 03:00N 51°27' E 003°42'0 0.0
2017-Oct-03 02:30N 51°27' E 003°42'0 0.0
2017-Oct-03 01:48N 51°27' E 003°42'0 0.0
2017-Oct-03 01:30N 51°27' E 003°42'0 0.0
2017-Oct-03 01:00N 51°27' E 003°42'0 0.0
2017-Oct-03 00:30N 51°27' E 003°42'0 0.0
2017-Oct-02 23:54N 51°27' E 003°42'0 0.0
2017-Oct-02 23:30N 51°27' E 003°42'0 0.0
2017-Oct-02 23:00N 51°27' E 003°42'0 0.0
2017-Oct-02 22:30N 51°27' E 003°42'0 0.0
2017-Oct-02 22:00N 51°27' E 003°42'0 0.0
2017-Oct-02 21:18N 51°27' E 003°42'0 0.0
2017-Oct-02 21:00N 51°27' E 003°42'0 0.0
2017-Oct-02 20:30N 51°27' E 003°42'0 0.0
2017-Oct-02 20:00N 51°27' E 003°42'0 0.0
2017-Oct-02 19:24N 51°27' E 003°42'0 0.0
2017-Oct-02 18:51N 51°27' E 003°42'0 0.0
2017-Oct-02 18:27N 51°27' E 003°42'0 0.0
2017-Oct-02 18:00N 51°27' E 003°42'0 0.0
2017-Oct-02 17:30N 51°27' E 003°42'0 0.0
2017-Oct-02 17:00N 51°27' E 003°42'0 0.0
2017-Oct-02 16:30N 51°27' E 003°42'0 0.0
2017-Oct-02 16:00N 51°27' E 003°42'0 0.0
2017-Oct-02 15:30N 51°27' E 003°42'0 0.0
2017-Oct-02 15:00N 51°27' E 003°42'0 0.0
2017-Oct-02 14:30N 51°27' E 003°42'0 0.0
2017-Oct-02 14:00N 51°27' E 003°42'0 0.0
2017-Oct-02 13:30N 51°27' E 003°42'0 0.0
2017-Oct-02 13:00N 51°27' E 003°42'0 0.0
2017-Oct-02 12:30N 51°27' E 003°42'0 0.0
2017-Oct-02 12:00N 51°27' E 003°42'0 0.0
2017-Oct-02 11:18N 51°27' E 003°42'0 0.0
2017-Oct-02 10:48N 51°27' E 003°42'0 0.0
2017-Oct-02 10:30N 51°27' E 003°42'0 0.0
2017-Oct-02 10:00N 51°27' E 003°42'0 0.0
2017-Oct-02 09:30N 51°27' E 003°42'0 0.0
2017-Oct-02 09:00N 51°27' E 003°42'0 0.0
2017-Oct-02 08:30N 51°27' E 003°42'0 0.0
2017-Oct-02 07:54N 51°27' E 003°42'0 0.0
2017-Oct-02 07:30N 51°27' E 003°42'0 0.0
2017-Oct-02 06:57N 51°27' E 003°42'0 0.0
2017-Oct-02 06:30N 51°27' E 003°42'0 0.0
2017-Oct-02 06:00N 51°27' E 003°42'0 0.0
2017-Oct-02 05:24N 51°27' E 003°42'0 0.0
2017-Oct-02 05:00N 51°27' E 003°42'0 0.0
2017-Oct-02 04:30N 51°27' E 003°42'0 0.0
2017-Oct-02 03:54N 51°27' E 003°42'0 0.0
2017-Oct-02 03:30N 51°27' E 003°42'0 0.0
2017-Oct-02 03:00N 51°27' E 003°42'0 0.0
2017-Oct-02 02:18N 51°27' E 003°42'0 0.0
2017-Oct-02 02:00N 51°27' E 003°42'0 0.0
2017-Oct-02 01:30N 51°27' E 003°42'0 0.0
2017-Oct-02 01:00N 51°27' E 003°42'0 0.0
2017-Oct-02 00:30N 51°27' E 003°42'0 0.0
2017-Oct-01 23:51N 51°27' E 003°42'0 0.0
2017-Oct-01 23:30N 51°27' E 003°42'0 0.0
2017-Oct-01 23:00N 51°27' E 003°42'0 0.0
2017-Oct-01 22:27N 51°27' E 003°42'0 0.0
2017-Oct-01 22:00N 51°27' E 003°42'0 0.0
2017-Oct-01 21:30N 51°27' E 003°42'0 0.0
2017-Oct-01 21:00N 51°27' E 003°42'0 0.0
2017-Oct-01 20:30N 51°27' E 003°42'0 0.0
2017-Oct-01 20:00N 51°27' E 003°42'0 0.0
2017-Oct-01 19:30N 51°27' E 003°42'0 0.0
2017-Oct-01 19:00N 51°27' E 003°42'0 0.0
2017-Oct-01 18:30N 51°27' E 003°42'0 0.0
2017-Oct-01 18:00N 51°27' E 003°42'0 0.0
2017-Oct-01 17:30N 51°27' E 003°42'0 0.0
2017-Oct-01 17:00N 51°27' E 003°42'0 0.0
2017-Oct-01 16:30N 51°27' E 003°42'0 0.0
2017-Oct-01 16:00N 51°27' E 003°42'0 0.0
2017-Oct-01 15:27N 51°27' E 003°42'0 0.0
2017-Oct-01 14:57N 51°27' E 003°42'0 0.0
2017-Oct-01 14:30N 51°27' E 003°42'0 0.0
2017-Oct-01 14:00N 51°27' E 003°42'0 0.0
2017-Oct-01 13:30N 51°27' E 003°42'0 0.0
2017-Oct-01 13:00N 51°27' E 003°42'0 0.0
2017-Oct-01 12:30N 51°27' E 003°42'0 0.0
2017-Oct-01 12:00N 51°27' E 003°42'0 0.5
2017-Oct-01 11:30N 51°27' E 003°42'1 2.0
2017-Oct-01 11:00N 51°28' E 003°41'2 4.5
2017-Oct-01 10:30N 51°26' E 003°38'3 6.9
2017-Oct-01 10:00N 51°25' E 003°33'4 7.6
2017-Oct-01 09:30N 51°25' E 003°27'510.5
2017-Oct-01 09:00N 51°24' E 003°18'510.8
2017-Oct-01 08:30N 51°24' E 003°10'510.3
2017-Oct-01 08:00N 51°25' E 003°01'510.1
2017-Oct-01 07:30N 51°25' E 002°53'5 9.4
2017-Oct-01 07:00N 51°24' E 002°46'4 7.1
2017-Oct-01 06:30N 51°23' E 002°41'2 4.7
2017-Oct-01 06:00N 51°25' E 002°39'1 0.4
2017-Oct-01 03:16N 51°26' E 002°38'  
Track history (hours):
 
Tides and Currents Weather Stations Pressure Air Temp Water Temp Dewpoint Dewpoint Depression Visibility Wind Speed Wind Dir Waves Ship Positions

Ocean Garlic

Last reported at 2017-Oct-10 02:18 UTC. Time now 2017-Oct-19 11:23 UTC.
Position N 71°05' E 030°21'.
Warning: this ship's position is 9 days out of date.

Length 229 m; draft 7.2 m.

Type: Cargo ship. MMSI: 538006845.

Date/timePositionNaut miles runAvg speedWind from/ knotsBaromVisibWave heightAir tempDewpointWater temp
2017-Oct-10 02:18N 71°05' E 030°21'413.1
2017-Oct-10 02:00N 71°07' E 030°11'713.1
2017-Oct-10 01:30N 71°11' E 029°55'612.7
2017-Oct-10 01:00N 71°15' E 029°39'612.6
2017-Oct-10 00:30N 71°19' E 029°24'  
2017-Oct-05 22:53N 58°48' E 004°13'306 8.4
2017-Oct-04 10:37N 53°42' E 004°53'110.3
2017-Oct-04 10:30N 53°41' E 004°52'510.6
2017-Oct-04 10:00N 53°36' E 004°49'510.6
2017-Oct-04 09:30N 53°31' E 004°47'510.7
2017-Oct-04 09:00N 53°26' E 004°44'610.7
2017-Oct-04 08:28N 53°21' E 004°40'510.9
2017-Oct-04 08:00N 53°16' E 004°37'611.0
2017-Oct-04 07:30N 53°12' E 004°32'611.0
2017-Oct-04 07:00N 53°07' E 004°27'611.0
2017-Oct-04 06:30N 53°02' E 004°23'611.3
2017-Oct-04 06:00N 52°57' E 004°18'611.5
2017-Oct-04 05:30N 52°52' E 004°15'611.8
2017-Oct-04 05:00N 52°47' E 004°09'612.1
2017-Oct-04 04:29N 52°42' E 004°02'612.3
2017-Oct-04 04:00N 52°37' E 003°56'912.8
2017-Oct-04 03:17N 52°32' E 003°45'513.0
2017-Oct-04 02:52N 52°28' E 003°38'712.9
2017-Oct-04 02:21N 52°22' E 003°32'413.1
2017-Oct-04 02:00N 52°18' E 003°31'713.2
2017-Oct-04 01:29N 52°11' E 003°28'1813.6
2017-Oct-04 00:08N 51°53' E 003°22'213.4
2017-Oct-04 00:00N 51°52' E 003°20'611.3
2017-Oct-03 23:29N 51°46' E 003°18'510.8
2017-Oct-03 23:00N 51°41' E 003°19'5 9.2
2017-Oct-03 22:30N 51°37' E 003°22'510.0
2017-Oct-03 22:00N 51°32' E 003°26'5 9.3
2017-Oct-03 21:30N 51°29' E 003°30'4 8.5
2017-Oct-03 21:00N 51°26' E 003°36'3 6.8
2017-Oct-03 20:30N 51°27' E 003°41'1 2.3
2017-Oct-03 20:00N 51°27' E 003°42'0 0.1
2017-Oct-03 19:30N 51°27' E 003°42'0 0.0
2017-Oct-03 18:54N 51°27' E 003°42'0 0.0
2017-Oct-03 18:30N 51°27' E 003°42'0 0.0
2017-Oct-03 18:00N 51°27' E 003°42'0 0.0
2017-Oct-03 17:30N 51°27' E 003°42'0 0.0
2017-Oct-03 17:00N 51°27' E 003°42'0 0.0
2017-Oct-03 16:30N 51°27' E 003°42'0 0.0
2017-Oct-03 16:00N 51°27' E 003°42'0 0.0
2017-Oct-03 15:30N 51°27' E 003°42'0 0.0
2017-Oct-03 15:00N 51°27' E 003°42'0 0.0
2017-Oct-03 13:54N 51°27' E 003°42'0 0.0
2017-Oct-03 13:30N 51°27' E 003°42'0 0.0
2017-Oct-03 13:00N 51°27' E 003°42'0 0.0
2017-Oct-03 12:30N 51°27' E 003°42'0 0.0
2017-Oct-03 12:00N 51°27' E 003°42'0 0.0
2017-Oct-03 11:30N 51°27' E 003°42'0 0.0
2017-Oct-03 11:00N 51°27' E 003°42'0 0.0
2017-Oct-03 10:30N 51°27' E 003°42'0 0.0
2017-Oct-03 10:00N 51°27' E 003°42'0 0.0
2017-Oct-03 09:30N 51°27' E 003°42'0 0.0
2017-Oct-03 09:00N 51°27' E 003°42'0 0.0
2017-Oct-03 08:30N 51°27' E 003°42'0 0.0
2017-Oct-03 08:00N 51°27' E 003°42'0 0.0
2017-Oct-03 07:30N 51°27' E 003°42'0 0.0
2017-Oct-03 07:00N 51°27' E 003°42'0 0.0
2017-Oct-03 06:30N 51°27' E 003°42'0 0.0
2017-Oct-03 06:00N 51°27' E 003°42'0 0.0
2017-Oct-03 05:30N 51°27' E 003°42'0 0.0
2017-Oct-03 05:00N 51°27' E 003°42'0 0.0
2017-Oct-03 04:30N 51°27' E 003°42'0 0.0
2017-Oct-03 04:00N 51°27' E 003°42'0 0.0
2017-Oct-03 03:30N 51°27' E 003°42'0 0.0
2017-Oct-03 03:00N 51°27' E 003°42'0 0.0
2017-Oct-03 02:30N 51°27' E 003°42'0 0.0
2017-Oct-03 01:48N 51°27' E 003°42'0 0.0
2017-Oct-03 01:30N 51°27' E 003°42'0 0.0
2017-Oct-03 01:00N 51°27' E 003°42'0 0.0
2017-Oct-03 00:30N 51°27' E 003°42'0 0.0
2017-Oct-02 23:54N 51°27' E 003°42'0 0.0
2017-Oct-02 23:30N 51°27' E 003°42'0 0.0
2017-Oct-02 23:00N 51°27' E 003°42'0 0.0
2017-Oct-02 22:30N 51°27' E 003°42'0 0.0
2017-Oct-02 22:00N 51°27' E 003°42'0 0.0
2017-Oct-02 21:18N 51°27' E 003°42'0 0.0
2017-Oct-02 21:00N 51°27' E 003°42'0 0.0
2017-Oct-02 20:30N 51°27' E 003°42'0 0.0
2017-Oct-02 20:00N 51°27' E 003°42'0 0.0
2017-Oct-02 19:24N 51°27' E 003°42'0 0.0
2017-Oct-02 18:51N 51°27' E 003°42'0 0.0
2017-Oct-02 18:27N 51°27' E 003°42'0 0.0
2017-Oct-02 18:00N 51°27' E 003°42'0 0.0
2017-Oct-02 17:30N 51°27' E 003°42'0 0.0
2017-Oct-02 17:00N 51°27' E 003°42'0 0.0
2017-Oct-02 16:30N 51°27' E 003°42'0 0.0
2017-Oct-02 16:00N 51°27' E 003°42'0 0.0
2017-Oct-02 15:30N 51°27' E 003°42'0 0.0
2017-Oct-02 15:00N 51°27' E 003°42'0 0.0
2017-Oct-02 14:30N 51°27' E 003°42'0 0.0
2017-Oct-02 14:00N 51°27' E 003°42'0 0.0
2017-Oct-02 13:30N 51°27' E 003°42'0 0.0
2017-Oct-02 13:00N 51°27' E 003°42'0 0.0
2017-Oct-02 12:30N 51°27' E 003°42'0 0.0
2017-Oct-02 12:00N 51°27' E 003°42'0 0.0
2017-Oct-02 11:18N 51°27' E 003°42'0 0.0
2017-Oct-02 10:48N 51°27' E 003°42'0 0.0
2017-Oct-02 10:30N 51°27' E 003°42'0 0.0
2017-Oct-02 10:00N 51°27' E 003°42'0 0.0
2017-Oct-02 09:30N 51°27' E 003°42'0 0.0
2017-Oct-02 09:00N 51°27' E 003°42'0 0.0
2017-Oct-02 08:30N 51°27' E 003°42'0 0.0
2017-Oct-02 07:54N 51°27' E 003°42'0 0.0
2017-Oct-02 07:30N 51°27' E 003°42'0 0.0
2017-Oct-02 06:57N 51°27' E 003°42'0 0.0
2017-Oct-02 06:30N 51°27' E 003°42'0 0.0
2017-Oct-02 06:00N 51°27' E 003°42'0 0.0
2017-Oct-02 05:24N 51°27' E 003°42'0 0.0
2017-Oct-02 05:00N 51°27' E 003°42'0 0.0
2017-Oct-02 04:30N 51°27' E 003°42'0 0.0
2017-Oct-02 03:54N 51°27' E 003°42'0 0.0
2017-Oct-02 03:30N 51°27' E 003°42'0 0.0
2017-Oct-02 03:00N 51°27' E 003°42'0 0.0
2017-Oct-02 02:18N 51°27' E 003°42'0 0.0
2017-Oct-02 02:00N 51°27' E 003°42'0 0.0
2017-Oct-02 01:30N 51°27' E 003°42'0 0.0
2017-Oct-02 01:00N 51°27' E 003°42'0 0.0
2017-Oct-02 00:30N 51°27' E 003°42'0 0.0
2017-Oct-01 23:51N 51°27' E 003°42'0 0.0
2017-Oct-01 23:30N 51°27' E 003°42'0 0.0
2017-Oct-01 23:00N 51°27' E 003°42'0 0.0
2017-Oct-01 22:27N 51°27' E 003°42'0 0.0
2017-Oct-01 22:00N 51°27' E 003°42'0 0.0
2017-Oct-01 21:30N 51°27' E 003°42'0 0.0
2017-Oct-01 21:00N 51°27' E 003°42'0 0.0
2017-Oct-01 20:30N 51°27' E 003°42'0 0.0
2017-Oct-01 20:00N 51°27' E 003°42'0 0.0
2017-Oct-01 19:30N 51°27' E 003°42'0 0.0
2017-Oct-01 19:00N 51°27' E 003°42'0 0.0
2017-Oct-01 18:30N 51°27' E 003°42'0 0.0
2017-Oct-01 18:00N 51°27' E 003°42'0 0.0
2017-Oct-01 17:30N 51°27' E 003°42'0 0.0
2017-Oct-01 17:00N 51°27' E 003°42'0 0.0
2017-Oct-01 16:30N 51°27' E 003°42'0 0.0
2017-Oct-01 16:00N 51°27' E 003°42'0 0.0
2017-Oct-01 15:27N 51°27' E 003°42'0 0.0
2017-Oct-01 14:57N 51°27' E 003°42'0 0.0
2017-Oct-01 14:30N 51°27' E 003°42'0 0.0
2017-Oct-01 14:00N 51°27' E 003°42'0 0.0
2017-Oct-01 13:30N 51°27' E 003°42'0 0.0
2017-Oct-01 13:00N 51°27' E 003°42'0 0.0
2017-Oct-01 12:30N 51°27' E 003°42'0 0.0
2017-Oct-01 12:00N 51°27' E 003°42'0 0.5
2017-Oct-01 11:30N 51°27' E 003°42'1 2.0
2017-Oct-01 11:00N 51°28' E 003°41'2 4.5
2017-Oct-01 10:30N 51°26' E 003°38'3 6.9
2017-Oct-01 10:00N 51°25' E 003°33'4 7.6
2017-Oct-01 09:30N 51°25' E 003°27'510.5
2017-Oct-01 09:00N 51°24' E 003°18'510.8
2017-Oct-01 08:30N 51°24' E 003°10'510.3
2017-Oct-01 08:00N 51°25' E 003°01'510.1
2017-Oct-01 07:30N 51°25' E 002°53'5 9.4
2017-Oct-01 07:00N 51°24' E 002°46'4 7.1
2017-Oct-01 06:30N 51°23' E 002°41'2 4.7
2017-Oct-01 06:00N 51°25' E 002°39'1 0.4
2017-Oct-01 03:16N 51°26' E 002°38'  

Dump ship's entire track history